Погода Дольныйна неделю

Ростовская область, Россия

13 - 19 июля
  • 13июля
    Сегодня
    +18°
    +33°
    Ясно и безоблачно
    ВремяПогодаТемператураВлажностьДавлениеВетер, м/сВероятность осадков
    00:00Ясно и безоблачно+22°C26 %753 мм4.8 м/с2 %
    03:00Ясно и безоблачно+20°C34 %753 мм4.2 м/с2 %
    06:00Ясно и безоблачно+20°C39 %753 мм4.3 м/с2 %
    09:00Ясно и безоблачно+28°C26 %753 мм4.2 м/с2 %
    12:00Ясно и безоблачно+31°C19 %752 мм3.5 м/с2 %
    15:00Ясно и безоблачно+32°C16 %751 мм4.1 м/с2 %
    18:00Ясно и безоблачно+30°C14 %751 мм4.6 м/с2 %
    21:00Ясно и безоблачно+24°C21 %752 мм2.9 м/с2 %
  • 14июля
    Воскресенье
    +20°
    +34°
    Ясно и безоблачно
    ВремяПогодаТемператураВлажностьДавлениеВетер, м/сВероятность осадков
    00:00Ясно и безоблачно+21°C26 %752 мм3.2 м/с2 %
    03:00Ясно и безоблачно+19°C34 %752 мм3.7 м/с2 %
    06:00Ясно и безоблачно+20°C47 %752 мм4.2 м/с2 %
    09:00Ясно и безоблачно+28°C25 %752 мм3.7 м/с2 %
    12:00Ясно и безоблачно+32°C18 %751 мм3.3 м/с2 %
    15:00Ясно и безоблачно+34°C16 %751 мм4.1 м/с2 %
    18:00Ясно и безоблачно+32°C14 %750 мм4.7 м/с2 %
    21:00Ясно и безоблачно+26°C19 %751 мм3.9 м/с2 %
  • 15июля
    Понедельник
    +23°
    +37°
    Ясно и безоблачно
    ВремяПогодаТемператураВлажностьДавлениеВетер, м/сВероятность осадков
    00:00Ясно и безоблачно+24°C25 %751 мм4.0 м/с2 %
    03:00Ясно и безоблачно+22°C33 %751 мм3.6 м/с2 %
    06:00Ясно и безоблачно+23°C34 %751 мм4.0 м/с2 %
    09:00Ясно и безоблачно+31°C26 %752 мм3.7 м/с2 %
    12:00Ясно и безоблачно+35°C21 %751 мм3.4 м/с2 %
    15:00Ясно и безоблачно+37°C17 %751 мм4.1 м/с2 %
    18:00Ясно и безоблачно+36°C18 %750 мм4.6 м/с2 %
    21:00Ясно и безоблачно+30°C28 %751 мм2.7 м/с2 %
  • 16июля
    Вторник
    +24°
    +40°
    Небольшая облачность
    ВремяПогодаТемператураВлажностьДавлениеВетер, м/сВероятность осадков
    00:00Ясно и безоблачно+27°C33 %751 мм2.6 м/с2 %
    03:00Ясно и безоблачно+24°C40 %751 мм2.2 м/с2 %
    06:00Ясно и безоблачно+25°C40 %751 мм2.1 м/с2 %
    09:00Ясно и безоблачно+34°C25 %752 мм0.1 м/с2 %
    12:00Небольшая облачность+38°C20 %751 мм0.9 м/с2 %
    15:00Небольшая облачность+39°C21 %751 мм2.7 м/с3 %
    18:00Небольшая облачность+37°C23 %751 мм3.9 м/с5 %
    21:00Ясно и безоблачно+32°C35 %751 мм4.1 м/с2 %
  • 17июля
    Среда
    +24°
    +39°
    Небольшая облачность
    ВремяПогодаТемператураВлажностьДавлениеВетер, м/сВероятность осадков
    00:00Ясно и безоблачно+29°C42 %751 мм3.5 м/с2 %
    03:00Ясно и безоблачно+26°C52 %751 мм2.4 м/с2 %
    06:00Ясно и безоблачно+27°C37 %752 мм2.3 м/с2 %
    09:00Ясно и безоблачно+34°C27 %752 мм2.2 м/с2 %
    12:00Ясно и безоблачно+37°C20 %752 мм1.6 м/с2 %
    15:00Небольшая облачность+38°C19 %751 мм2.0 м/с6 %
    18:00Облачно с прояснениями+37°C22 %751 мм1.1 м/с3 %
    21:00Ясно и безоблачно+32°C27 %751 мм2.7 м/с2 %
Мы используем cookies
Соглашаюсь